TZR weather

Bolton Field
Columbus, Ohio, United States

Public forecast

Using degrees Fahrenheit for public forecast. Weather courtesy of forecast.io.

METAR (pilot weather report)

Retrieved 2019/03/23 15:45 UTC (27 minutes ago):

KTZR 231545Z 32003KT 10SM SKC 04/M05 A3033

TAF (pilot weather forecast)

Closest forecast is Rickenbacker International Airport, 11.0 nm (20.3 km) ESE. Retrieved 2019/03/23 12:36 UTC (4 hours ago):

TAF KLCK 231129Z 2312/2412 31006KT P6SM SKC FM232300 VRB03KT P6SM SCT250 FM240800 18004KT P6SM BKN120